Time;durP1;ratioP1;P1;durP2;ratioP2;P2;SDS_P1;SDS_P2;PMS_P1;PMS_P2;Temp;Humidity;BMP_temperature;BMP_pressure;BME280_temperature;BME280_humidity;BME280_pressure;Samples;Min_cycle;Max_cycle;Signal;HPM_P1;HPM_P2
2022/04/07 00:00:44;;;;;;;6.20;5.70;;;11.80;73.90;;;;;;6336792;28;20469;-65
2022/04/07 00:03:49;;;;;;;7.20;6.60;;;11.80;73.20;;;;;;6327858;28;20519;-66
2022/04/07 00:06:52;;;;;;;6.87;6.20;;;11.80;73.20;;;;;;6328751;28;20559;-64
2022/04/07 00:09:55;;;;;;;7.10;6.50;;;11.80;72.20;;;;;;6333490;28;20464;-65
2022/04/07 00:12:58;;;;;;;7.20;6.53;;;11.70;72.30;;;;;;6334139;28;20471;-65
2022/04/07 00:16:02;;;;;;;8.27;7.47;;;11.60;73.10;;;;;;6347999;28;20466;-65
2022/04/07 00:19:07;;;;;;;7.70;6.90;;;11.60;74.00;;;;;;6328400;28;20938;-65
2022/04/07 00:22:10;;;;;;;8.40;7.60;;;11.50;74.40;;;;;;6338962;28;20487;-64
2022/04/07 00:25:13;;;;;;;7.50;6.80;;;11.40;74.70;;;;;;6336112;28;20471;-65
2022/04/07 00:28:16;;;;;;;8.83;7.70;;;11.40;75.10;;;;;;6353493;28;20463;-65
2022/04/07 00:31:20;;;;;;;7.00;6.30;;;11.30;75.30;;;;;;6345312;28;20479;-65
2022/04/07 00:34:24;;;;;;;8.27;7.40;;;11.20;75.70;;;;;;6333090;28;20468;-64
2022/04/07 00:37:27;;;;;;;7.23;6.53;;;11.10;76.40;;;;;;6328182;28;20475;-64
2022/04/07 00:40:31;;;;;;;8.30;7.57;;;11.20;75.70;;;;;;6328105;28;20468;-65
2022/04/07 00:43:36;;;;;;;7.77;7.07;;;11.20;75.70;;;;;;6327352;28;20477;-64
2022/04/07 00:46:40;;;;;;;8.53;7.73;;;11.10;76.10;;;;;;6322707;28;20940;-65
2022/04/07 00:49:44;;;;;;;8.70;7.90;;;11.10;76.50;;;;;;6328033;28;20476;-65
2022/04/07 00:52:50;;;;;;;7.77;7.07;;;11.10;76.90;;;;;;6327370;28;20472;-65
2022/04/07 00:55:59;;;;;;;7.63;7.03;;;11.00;77.10;;;;;;6327820;28;20485;-65
2022/04/07 00:59:03;;;;;;;7.17;6.43;;;11.00;77.70;;;;;;6327346;28;20472;-65
2022/04/07 01:02:09;;;;;;;7.50;6.90;;;11.00;78.40;;;;;;6326941;28;20487;-64
2022/04/07 01:05:13;;;;;;;8.03;7.33;;;10.90;79.10;;;;;;6327182;28;20479;-64
2022/04/07 01:08:17;;;;;;;7.17;6.57;;;10.80;79.70;;;;;;6327259;28;20956;-64
2022/04/07 01:11:20;;;;;;;7.53;6.90;;;10.80;80.50;;;;;;6328059;28;20484;-64
2022/04/07 01:14:23;;;;;;;8.80;7.37;;;10.80;81.50;;;;;;6327409;28;20960;-65
2022/04/07 01:17:27;;;;;;;7.10;6.50;;;10.80;82.10;;;;;;6327302;28;20476;-65
2022/04/07 01:20:31;;;;;;;7.83;7.03;;;10.70;82.10;;;;;;6326934;28;20487;-65
2022/04/07 01:23:38;;;;;;;8.53;7.57;;;10.70;82.20;;;;;;6326470;28;20472;-64
2022/04/07 01:26:43;;;;;;;7.43;6.83;;;10.70;82.80;;;;;;6326950;28;20959;-64
2022/04/07 01:29:47;;;;;;;7.47;6.77;;;10.60;83.30;;;;;;6326721;28;20457;-64
2022/04/07 01:32:52;;;;;;;8.27;7.57;;;10.70;85.10;;;;;;6326987;28;20471;-64
2022/04/07 01:35:55;;;;;;;7.93;7.33;;;10.70;85.50;;;;;;6327164;28;20782;-64
2022/04/07 01:38:59;;;;;;;7.20;6.53;;;10.60;85.60;;;;;;6327028;28;20451;-64
2022/04/07 01:42:04;;;;;;;7.10;6.50;;;10.50;87.00;;;;;;6327375;28;20522;-64
2022/04/07 01:45:08;;;;;;;7.00;6.30;;;10.60;87.50;;;;;;6326395;28;20475;-65
2022/04/07 01:48:11;;;;;;;8.13;7.33;;;10.60;87.50;;;;;;6326439;28;20461;-65
2022/04/07 01:51:15;;;;;;;7.87;7.07;;;10.60;87.90;;;;;;6321581;28;20476;-64
2022/04/07 01:54:19;;;;;;;7.73;7.13;;;10.50;87.70;;;;;;6325964;28;20502;-65
2022/04/07 01:57:24;;;;;;;7.93;7.13;;;10.50;88.00;;;;;;6326056;28;20464;-65
2022/04/07 02:00:27;;;;;;;7.07;6.53;;;10.50;88.30;;;;;;6326158;28;21014;-64
2022/04/07 02:03:30;;;;;;;7.50;6.90;;;10.50;89.10;;;;;;6324845;28;20476;-64
2022/04/07 02:06:34;;;;;;;7.17;6.47;;;10.60;89.90;;;;;;6325913;28;20469;-64
2022/04/07 02:09:37;;;;;;;7.53;6.83;;;10.60;89.40;;;;;;6326012;28;20475;-64
2022/04/07 02:12:42;;;;;;;7.70;6.37;;;10.70;90.00;;;;;;6325592;28;20472;-64
2022/04/07 02:15:46;;;;;;;10.37;6.43;;;10.70;90.40;;;;;;6325728;28;20479;-64
2022/04/07 02:18:49;;;;;;;8.03;7.03;;;10.70;90.00;;;;;;6325929;28;20471;-65
2022/04/07 02:21:53;;;;;;;7.53;6.73;;;10.70;90.00;;;;;;6325667;28;20471;-65
2022/04/07 02:24:56;;;;;;;6.90;6.20;;;10.80;90.00;;;;;;6325366;28;20952;-64
2022/04/07 02:28:00;;;;;;;6.93;6.33;;;10.80;90.30;;;;;;6325344;28;20487;-64
2022/04/07 02:31:04;;;;;;;7.17;6.57;;;10.80;89.90;;;;;;6325321;28;20465;-64
2022/04/07 02:34:07;;;;;;;6.80;6.20;;;10.80;89.70;;;;;;6325549;28;20484;-64
2022/04/07 02:37:11;;;;;;;7.90;6.87;;;10.80;89.70;;;;;;6324947;28;20468;-64
2022/04/07 02:40:14;;;;;;;7.90;6.67;;;10.80;89.70;;;;;;6325560;28;20484;-64
2022/04/07 02:43:18;;;;;;;7.20;6.50;;;10.80;90.00;;;;;;6325169;28;20535;-64
2022/04/07 02:46:21;;;;;;;7.90;7.20;;;10.80;90.10;;;;;;6325020;28;20476;-64
2022/04/07 02:49:25;;;;;;;7.23;6.73;;;10.80;90.00;;;;;;6324895;28;20971;-64
2022/04/07 02:52:28;;;;;;;6.93;5.77;;;10.80;89.80;;;;;;6324989;28;20789;-64
2022/04/07 02:55:31;;;;;;;6.90;6.30;;;10.80;89.90;;;;;;6315716;28;20495;-64
2022/04/07 02:58:36;;;;;;;7.00;6.30;;;10.70;90.00;;;;;;6324624;28;20472;-64
2022/04/07 03:01:39;;;;;;;6.23;5.63;;;10.70;90.10;;;;;;6325170;28;20475;-64
2022/04/07 03:04:42;;;;;;;7.60;7.00;;;10.70;90.30;;;;;;6324668;28;20561;-64
2022/04/07 03:07:45;;;;;;;7.17;6.53;;;10.60;90.40;;;;;;6327475;28;20471;-64
2022/04/07 03:10:49;;;;;;;6.57;5.97;;;10.50;90.50;;;;;;6328985;28;20480;-64
2022/04/07 03:13:53;;;;;;;6.60;6.00;;;10.60;90.60;;;;;;6329582;28;20825;-64
2022/04/07 03:16:57;;;;;;;8.17;7.57;;;10.60;90.50;;;;;;6333040;28;20479;-64
2022/04/07 03:20:00;;;;;;;7.63;6.93;;;10.60;90.40;;;;;;6335852;28;20852;-65
2022/04/07 03:23:03;;;;;;;7.20;6.60;;;10.50;90.30;;;;;;6338596;28;20480;-64
2022/04/07 03:26:06;;;;;;;7.30;6.60;;;10.40;90.60;;;;;;6337233;28;20944;-64
2022/04/07 03:29:10;;;;;;;7.63;6.77;;;10.40;90.70;;;;;;6332815;28;20502;-63
2022/04/07 03:32:13;;;;;;;10.93;6.67;;;10.40;90.80;;;;;;6332699;28;20491;-64
2022/04/07 03:35:16;;;;;;;6.13;5.63;;;10.30;91.00;;;;;;6332882;28;20558;-64
2022/04/07 03:38:20;;;;;;;6.47;5.83;;;10.30;91.30;;;;;;6332578;28;20483;-64
2022/04/07 03:41:23;;;;;;;7.30;6.53;;;10.30;91.40;;;;;;6332953;28;20480;-64
2022/04/07 03:44:27;;;;;;;6.03;5.53;;;10.30;91.80;;;;;;6332677;28;20807;-63
2022/04/07 03:47:31;;;;;;;8.33;7.53;;;10.30;92.00;;;;;;6332978;28;20491;-64
2022/04/07 03:50:34;;;;;;;7.33;6.63;;;10.20;92.20;;;;;;6332472;28;20994;-64
2022/04/07 03:53:37;;;;;;;6.63;6.00;;;10.30;92.40;;;;;;6332881;28;20476;-64
2022/04/07 03:56:40;;;;;;;8.50;6.67;;;10.30;92.40;;;;;;6332232;28;20504;-64
2022/04/07 03:59:45;;;;;;;10.57;7.10;;;10.30;92.40;;;;;;6322745;28;20484;-65
2022/04/07 04:02:48;;;;;;;6.73;6.13;;;10.30;92.20;;;;;;6332071;28;20484;-64
2022/04/07 04:05:51;;;;;;;7.97;6.90;;;10.30;92.20;;;;;;6332745;28;20529;-65
2022/04/07 04:08:55;;;;;;;6.60;6.00;;;10.30;92.40;;;;;;6332311;28;20899;-64
2022/04/07 04:11:58;;;;;;;6.90;6.20;;;10.30;92.40;;;;;;6332555;28;20444;-64
2022/04/07 04:15:02;;;;;;;7.40;6.80;;;10.30;92.40;;;;;;6331908;28;20436;-64
2022/04/07 04:18:06;;;;;;;7.97;6.50;;;10.20;92.50;;;;;;6331886;28;20444;-64
2022/04/07 04:21:09;;;;;;;6.50;5.57;;;10.20;92.40;;;;;;6331940;28;20919;-66
2022/04/07 04:24:12;;;;;;;9.60;6.67;;;10.20;92.70;;;;;;6331910;28;20796;-65
2022/04/07 04:27:16;;;;;;;7.40;6.70;;;10.20;92.60;;;;;;6329187;28;20482;-64
2022/04/07 04:30:20;;;;;;;6.23;5.73;;;10.10;92.70;;;;;;6328131;28;20463;-64
2022/04/07 04:33:23;;;;;;;7.10;6.43;;;10.20;92.80;;;;;;6328073;28;20480;-64
2022/04/07 04:36:33;;;;;;;8.00;7.20;;;10.20;92.60;;;;;;6333407;28;20479;-64
2022/04/07 04:39:36;;;;;;;7.00;6.30;;;10.20;92.70;;;;;;6349855;28;20940;-64
2022/04/07 04:42:40;;;;;;;8.00;7.20;;;10.10;92.80;;;;;;6328305;28;20488;-64
2022/04/07 04:45:45;;;;;;;6.20;5.60;;;10.10;93.10;;;;;;6328852;28;20467;-64
2022/04/07 04:48:48;;;;;;;6.73;6.03;;;10.10;93.10;;;;;;6328167;28;20468;-64
2022/04/07 04:51:51;;;;;;;6.47;5.97;;;10.20;93.10;;;;;;6327733;28;20786;-64
2022/04/07 04:54:54;;;;;;;9.23;5.77;;;10.30;93.20;;;;;;6327640;28;20517;-64
2022/04/07 04:57:57;;;;;;;8.00;7.30;;;10.30;93.20;;;;;;6327640;28;20476;-64
2022/04/07 05:01:03;;;;;;;13.10;7.43;;;10.30;93.30;;;;;;6322597;28;20476;-64
2022/04/07 05:04:06;;;;;;;9.47;6.93;;;10.40;93.40;;;;;;6327648;28;20940;-64
2022/04/07 05:07:09;;;;;;;6.67;5.93;;;10.40;93.30;;;;;;6327253;28;20472;-64
2022/04/07 05:10:12;;;;;;;7.77;7.00;;;10.50;93.30;;;;;;6326760;28;20825;-64
2022/04/07 05:13:15;;;;;;;10.63;6.33;;;10.50;93.10;;;;;;6326737;28;20533;-64
2022/04/07 05:16:20;;;;;;;7.17;6.47;;;10.50;93.30;;;;;;6326492;28;20565;-64
2022/04/07 05:19:23;;;;;;;8.30;6.20;;;10.50;93.40;;;;;;6327005;28;20944;-64
2022/04/07 05:22:26;;;;;;;7.30;6.53;;;10.50;93.60;;;;;;6326212;28;20488;-64
2022/04/07 05:25:29;;;;;;;7.70;6.80;;;10.60;93.80;;;;;;6327369;28;20487;-65
2022/04/07 05:28:32;;;;;;;10.00;7.57;;;10.70;93.80;;;;;;6326599;28;20494;-64
2022/04/07 05:31:37;;;;;;;12.10;6.30;;;10.80;93.90;;;;;;6326323;28;20557;-64
2022/04/07 05:34:40;;;;;;;7.60;5.90;;;10.90;93.80;;;;;;6325258;28;20480;-64
2022/04/07 05:37:43;;;;;;;8.60;6.17;;;10.90;93.60;;;;;;6324164;28;20483;-65
2022/04/07 05:40:46;;;;;;;17.97;6.77;;;10.90;93.50;;;;;;6324572;28;20468;-64
2022/04/07 05:43:50;;;;;;;9.13;6.10;;;11.10;93.60;;;;;;6324715;28;20916;-64
2022/04/07 05:46:54;;;;;;;7.77;5.90;;;11.20;93.50;;;;;;6325681;28;20483;-64
2022/04/07 05:49:58;;;;;;;10.57;6.87;;;11.30;93.40;;;;;;6326078;28;20487;-64
2022/04/07 05:53:01;;;;;;;7.93;6.30;;;11.40;93.40;;;;;;6326413;28;20491;-64
2022/04/07 05:56:04;;;;;;;8.30;6.37;;;11.50;93.10;;;;;;6325931;28;20488;-64
2022/04/07 05:59:07;;;;;;;7.80;6.27;;;11.60;93.00;;;;;;6326173;28;20468;-65
2022/04/07 06:02:12;;;;;;;7.77;6.33;;;11.80;93.00;;;;;;6325439;28;20495;-65
2022/04/07 06:05:16;;;;;;;14.43;6.50;;;11.90;92.70;;;;;;6325551;28;20963;-65
2022/04/07 06:08:20;;;;;;;8.33;6.67;;;12.00;92.60;;;;;;6325381;28;20473;-65
2022/04/07 06:11:23;;;;;;;10.13;7.50;;;12.10;92.50;;;;;;6325705;28;20786;-64
2022/04/07 06:14:26;;;;;;;11.73;8.63;;;12.20;92.50;;;;;;6325409;28;20476;-65
2022/04/07 06:17:35;;;;;;;10.97;7.83;;;12.30;92.30;;;;;;6325490;28;20480;-64
2022/04/07 06:20:38;;;;;;;11.83;8.50;;;12.40;92.20;;;;;;6325595;28;20477;-64
2022/04/07 06:23:41;;;;;;;18.50;13.67;;;12.40;92.10;;;;;;6325599;28;20979;-64
2022/04/07 06:26:44;;;;;;;11.30;8.33;;;12.50;92.00;;;;;;6326486;28;20468;-64
2022/04/07 06:29:47;;;;;;;14.13;9.10;;;12.50;92.10;;;;;;6328819;28;20480;-64
2022/04/07 06:32:52;;;;;;;12.27;7.67;;;12.50;92.10;;;;;;6325987;28;20464;-64
2022/04/07 06:35:55;;;;;;;10.57;8.20;;;12.60;92.10;;;;;;6326731;28;20429;-64
2022/04/07 06:38:58;;;;;;;15.90;10.10;;;12.70;92.00;;;;;;6325872;28;20803;-65
2022/04/07 06:42:01;;;;;;;15.40;9.07;;;12.80;91.90;;;;;;6326076;28;20464;-65
2022/04/07 06:45:05;;;;;;;12.97;8.87;;;12.80;92.00;;;;;;6325948;28;20450;-65
2022/04/07 06:48:12;;;;;;;12.10;8.50;;;12.70;92.00;;;;;;6327066;28;20947;-65
2022/04/07 06:51:15;;;;;;;11.33;8.27;;;12.70;92.10;;;;;;6326900;28;20522;-64
2022/04/07 06:54:18;;;;;;;12.83;9.50;;;12.70;92.10;;;;;;6325649;28;20479;-64
2022/04/07 06:57:21;;;;;;;13.13;10.17;;;12.70;91.70;;;;;;6325231;28;20471;-65
2022/04/07 07:00:25;;;;;;;15.50;9.10;;;12.70;91.90;;;;;;6325165;28;20798;-65
2022/04/07 07:03:30;;;;;;;14.50;8.70;;;12.80;91.80;;;;;;6326131;28;20476;-64
2022/04/07 07:06:33;;;;;;;10.70;8.87;;;12.80;91.40;;;;;;6325685;28;20473;-67
2022/04/07 07:09:36;;;;;;;15.63;9.30;;;12.80;91.40;;;;;;6315581;28;20484;-66
2022/04/07 07:12:39;;;;;;;15.53;9.40;;;12.90;91.30;;;;;;6325193;28;20484;-64
2022/04/07 07:15:43;;;;;;;9.97;8.97;;;13.00;90.90;;;;;;6324834;28;20610;-64
2022/04/07 07:18:47;;;;;;;10.03;8.97;;;13.10;90.90;;;;;;6325197;28;20468;-65
2022/04/07 07:21:50;;;;;;;9.77;8.80;;;13.20;90.70;;;;;;6325043;28;20476;-65
2022/04/07 07:24:53;;;;;;;13.90;9.77;;;13.30;90.30;;;;;;6324771;28;20476;-65
2022/04/07 07:27:56;;;;;;;12.03;9.10;;;13.30;90.30;;;;;;6324889;28;20529;-66
2022/04/07 07:31:00;;;;;;;10.37;9.10;;;13.30;90.50;;;;;;6324655;28;20475;-66
2022/04/07 07:34:04;;;;;;;13.47;9.57;;;13.50;90.30;;;;;;6324326;28;20487;-66
2022/04/07 07:37:08;;;;;;;13.00;9.23;;;13.60;89.80;;;;;;6335433;28;20481;-65
2022/04/07 07:40:12;;;;;;;15.00;10.30;;;13.70;90.00;;;;;;6337557;28;20844;-65
2022/04/07 07:43:15;;;;;;;10.43;9.40;;;13.80;89.10;;;;;;6327643;28;20472;-64
2022/04/07 07:46:18;;;;;;;12.10;9.63;;;13.90;89.80;;;;;;6324274;28;20475;-65
2022/04/07 07:49:22;;;;;;;13.40;10.50;;;14.10;88.70;;;;;;6324277;28;20471;-66
2022/04/07 07:52:25;;;;;;;16.93;10.73;;;14.30;88.30;;;;;;6333252;28;20797;-66
2022/04/07 07:55:28;;;;;;;14.20;10.73;;;14.50;87.10;;;;;;6329922;28;20468;-67
2022/04/07 07:58:32;;;;;;;14.87;10.57;;;14.90;86.70;;;;;;6334371;28;20937;-67
2022/04/07 08:01:35;;;;;;;11.90;9.47;;;15.20;84.90;;;;;;6325953;28;20477;-66
2022/04/07 08:04:39;;;;;;;14.93;9.70;;;15.50;83.20;;;;;;6330466;28;20486;-66
2022/04/07 08:07:43;;;;;;;11.40;9.80;;;15.80;82.20;;;;;;6320199;28;20469;-66
2022/04/07 08:10:47;;;;;;;13.87;9.00;;;16.20;80.70;;;;;;6303965;28;20550;-67
2022/04/07 08:13:50;;;;;;;14.00;7.80;;;16.60;78.50;;;;;;6294634;28;20818;-65
2022/04/07 08:16:53;;;;;;;12.03;9.03;;;17.00;77.30;;;;;;6306480;28;20488;-67
2022/04/07 08:19:58;;;;;;;12.33;10.70;;;17.40;75.00;;;;;;6305209;28;20488;-69
2022/04/07 08:23:01;;;;;;;19.70;9.67;;;17.40;73.90;;;;;;6310006;28;20478;-66
2022/04/07 08:26:04;;;;;;;13.93;9.10;;;17.60;72.70;;;;;;6340542;28;20468;-66
2022/04/07 08:29:07;;;;;;;11.10;8.43;;;18.10;72.40;;;;;;6332668;28;20456;-68
2022/04/07 08:32:10;;;;;;;9.77;8.83;;;18.50;70.00;;;;;;6329872;28;20484;-66
2022/04/07 08:35:15;;;;;;;9.90;8.27;;;18.70;68.50;;;;;;6332088;28;20488;-65
2022/04/07 08:38:19;;;;;;;14.50;8.70;;;18.70;67.60;;;;;;6331046;28;20242;-67
2022/04/07 08:41:22;;;;;;;10.73;8.00;;;18.80;67.10;;;;;;6328385;28;20483;-71
2022/04/07 08:44:31;;;;;;;16.77;7.40;;;18.90;66.30;;;;;;6327866;28;20246;-67
2022/04/07 08:47:35;;;;;;;8.43;7.63;;;19.20;65.30;;;;;;6328890;28;20665;-69
2022/04/07 08:50:40;;;;;;;8.70;7.90;;;21.70;61.90;;;;;;6328274;28;20544;-69
2022/04/07 08:53:44;;;;;;;10.37;7.80;;;26.50;50.00;;;;;;6327587;28;20227;-65
2022/04/07 08:56:47;;;;;;;7.53;6.90;;;27.40;43.30;;;;;;6318731;28;20231;-66
2022/04/07 08:59:51;;;;;;;7.97;7.27;;;27.00;41.70;;;;;;6303831;28;20229;-67
2022/04/07 09:02:54;;;;;;;8.13;7.17;;;27.20;41.20;;;;;;6303475;28;20545;-66
2022/04/07 09:06:01;;;;;;;11.20;6.80;;;27.30;39.60;;;;;;6313810;28;20198;-67
2022/04/07 09:09:12;;;;;;;7.93;6.10;;;30.10;37.20;;;;;;6355924;28;20198;-68
2022/04/07 09:12:24;;;;;;;6.53;5.93;;;33.80;30.60;;;;;;6352586;28;20226;-70
2022/04/07 09:15:28;;;;;;;3.78;3.55;;;35.80;27.40;;;;;;6344569;28;20228;-68
2022/04/07 09:18:36;;;;;;;3.60;3.30;;;37.50;24.10;;;;;;6344450;28;20363;-66
2022/04/07 09:21:40;;;;;;;4.35;4.03;;;37.20;23.10;;;;;;6335699;28;20222;-66
2022/04/07 09:24:44;;;;;;;4.28;3.78;;;35.50;23.70;;;;;;6339726;28;20657;-67
2022/04/07 09:27:49;;;;;;;3.10;2.90;;;36.90;23.20;;;;;;6345134;28;20236;-69
2022/04/07 09:30:53;;;;;;;3.22;3.03;;;37.90;21.80;;;;;;6351822;28;20557;-66
2022/04/07 09:33:56;;;;;;;2.72;1.50;;;37.50;21.10;;;;;;6351740;28;20240;-64
2022/04/07 09:37:09;;;;;;;1.67;1.20;;;35.00;21.50;;;;;;6326846;28;20256;-66
2022/04/07 09:40:14;;;;;;;1.55;1.45;;;34.70;22.70;;;;;;6319212;28;20226;-65
2022/04/07 09:43:18;;;;;;;2.45;1.67;;;37.00;21.20;;;;;;6301101;28;20246;-65
2022/04/07 09:46:22;;;;;;;1.80;1.60;;;38.70;19.80;;;;;;6322595;28;20233;-63
2022/04/07 09:49:26;;;;;;;2.15;1.20;;;36.00;20.80;;;;;;6326455;28;20275;-65
2022/04/07 09:52:31;;;;;;;1.63;1.52;;;35.70;21.40;;;;;;6312839;28;20578;-65
2022/04/07 09:55:37;;;;;;;1.70;1.50;;;35.10;21.50;;;;;;6326195;28;20662;-66
2022/04/07 09:58:40;;;;;;;1.60;1.50;;;34.50;22.10;;;;;;6333550;28;20221;-65
2022/04/07 10:01:43;;;;;;;2.28;1.45;;;33.60;22.80;;;;;;6350926;28;20232;-65
2022/04/07 10:04:48;;;;;;;2.50;0.90;;;33.00;23.00;;;;;;6350893;28;20237;-67
2022/04/07 10:07:53;;;;;;;1.75;0.90;;;32.10;23.00;;;;;;6350702;28;20228;-67
2022/04/07 10:10:56;;;;;;;1.23;0.82;;;30.50;24.60;;;;;;6341214;28;20222;-66
2022/04/07 10:14:00;;;;;;;1.50;1.40;;;29.60;24.90;;;;;;6326045;28;20260;-66
2022/04/07 10:17:21;;;;;;;2.73;2.53;;;28.90;26.10;;;;;;6337521;28;20230;-67
2022/04/07 10:20:32;;;;;;;2.70;2.50;;;28.10;27.40;;;;;;6334912;28;20241;-66
2022/04/07 10:23:47;;;;;;;1.97;1.80;;;27.00;29.30;;;;;;6325952;28;20662;-66
2022/04/07 10:26:51;;;;;;;2.90;1.77;;;25.80;29.70;;;;;;6325062;28;20221;-67
2022/04/07 10:30:06;;;;;;;1.87;1.53;;;25.20;30.30;;;;;;6325412;28;20299;-65
2022/04/07 10:33:33;;;;;;;2.43;2.17;;;24.70;30.40;;;;;;6325706;28;20218;-66
2022/04/07 10:36:39;;;;;;;2.07;1.50;;;24.50;31.00;;;;;;6325879;28;20234;-66
2022/04/07 10:39:48;;;;;;;2.50;1.60;;;24.40;31.00;;;;;;6324570;28;20241;-66
2022/04/07 10:43:13;;;;;;;1.10;1.00;;;24.20;31.40;;;;;;6325456;28;20309;-66
2022/04/07 10:46:19;;;;;;;1.90;1.33;;;24.00;32.00;;;;;;6305421;28;20309;-66
2022/04/07 10:49:25;;;;;;;4.30;1.33;;;23.80;32.00;;;;;;6325120;28;20222;-65
2022/04/07 10:52:28;;;;;;;1.70;1.30;;;23.70;32.50;;;;;;6324700;28;20230;-66
2022/04/07 10:55:57;;;;;;;1.20;1.10;;;23.90;32.40;;;;;;6325211;28;20222;-65
2022/04/07 10:59:13;;;;;;;1.10;1.00;;;24.20;32.10;;;;;;6349577;28;20548;-66
2022/04/07 11:02:32;;;;;;;1.20;1.10;;;24.20;31.20;;;;;;6349967;28;20673;-66
2022/04/07 11:05:53;;;;;;;2.33;1.13;;;24.30;31.40;;;;;;6349847;28;20237;-64
2022/04/07 11:09:12;;;;;;;1.53;1.43;;;24.40;31.50;;;;;;6353348;28;20217;-65
2022/04/07 11:12:22;;;;;;;1.60;1.20;;;24.10;31.40;;;;;;6348432;28;20231;-68
2022/04/07 11:15:32;;;;;;;3.20;1.60;;;23.90;32.10;;;;;;6325693;28;20252;-65
2022/04/07 11:18:52;;;;;;;2.13;1.40;;;23.80;32.40;;;;;;6325248;28;20227;-65
2022/04/07 11:22:07;;;;;;;1.50;1.40;;;23.40;32.10;;;;;;6325114;28;20227;-63
2022/04/07 11:25:12;;;;;;;1.00;0.97;;;23.50;32.60;;;;;;6307972;28;20220;-63
2022/04/07 11:28:18;;;;;;;1.20;1.10;;;23.60;32.10;;;;;;6299123;28;20238;-64
2022/04/07 11:31:40;;;;;;;1.20;1.10;;;23.50;32.10;;;;;;6299615;28;20231;-64
2022/04/07 11:34:53;;;;;;;3.77;1.60;;;23.60;32.10;;;;;;6300016;28;20238;-65
2022/04/07 11:37:57;;;;;;;2.20;1.37;;;23.70;32.10;;;;;;6305593;28;20234;-66
2022/04/07 11:41:02;;;;;;;1.67;1.00;;;23.90;32.80;;;;;;6304074;28;20319;-66
2022/04/07 11:44:11;;;;;;;5.33;1.50;;;24.10;32.20;;;;;;6308118;28;20222;-66
2022/04/07 11:47:25;;;;;;;3.20;1.00;;;23.90;31.40;;;;;;6329572;28;20222;-65
2022/04/07 11:50:28;;;;;;;1.40;1.30;;;23.50;31.60;;;;;;6329381;28;20575;-69
2022/04/07 11:53:31;;;;;;;2.20;1.07;;;23.60;31.60;;;;;;6329175;28;20234;-65
2022/04/07 11:56:38;;;;;;;3.17;1.40;;;23.60;31.70;;;;;;6331222;28;20226;-63
2022/04/07 11:59:44;;;;;;;2.30;1.50;;;23.40;32.10;;;;;;6333907;28;20257;-64
2022/04/07 12:02:58;;;;;;;1.20;1.00;;;23.30;32.50;;;;;;6311284;28;20729;-65
2022/04/07 12:06:02;;;;;;;1.43;1.10;;;22.90;32.90;;;;;;6306581;28;20223;-68
2022/04/07 12:09:06;;;;;;;1.67;1.40;;;23.10;32.90;;;;;;6327456;28;20199;-66
2022/04/07 12:12:12;;;;;;;1.40;1.30;;;23.30;32.60;;;;;;6308839;28;20559;-64
2022/04/07 12:15:18;;;;;;;1.60;1.50;;;23.10;33.00;;;;;;6302965;28;20234;-66
2022/04/07 12:18:29;;;;;;;1.70;1.20;;;23.20;33.00;;;;;;6302526;28;20583;-65
2022/04/07 12:21:52;;;;;;;1.67;1.57;;;23.40;32.80;;;;;;6308947;28;20232;-63
2022/04/07 12:25:05;;;;;;;1.70;1.60;;;23.20;32.70;;;;;;6327302;28;20222;-64
2022/04/07 12:28:09;;;;;;;1.57;1.33;;;22.90;33.60;;;;;;6324790;28;20340;-63
2022/04/07 12:31:20;;;;;;;1.53;1.40;;;22.90;33.40;;;;;;6305197;28;20227;-63
2022/04/07 12:34:24;;;;;;;4.10;1.77;;;22.70;33.50;;;;;;6303166;28;20235;-63
2022/04/07 12:37:33;;;;;;;2.93;1.30;;;22.90;33.40;;;;;;6303423;28;20234;-68
2022/04/07 12:40:36;;;;;;;2.70;1.93;;;23.40;33.20;;;;;;6303194;28;20558;-65
2022/04/07 12:43:50;;;;;;;1.73;1.60;;;23.40;33.60;;;;;;6303096;28;20526;-65
2022/04/07 12:46:56;;;;;;;1.93;1.70;;;23.60;33.30;;;;;;6303089;28;20231;-67
2022/04/07 12:50:01;;;;;;;2.87;1.67;;;23.90;33.20;;;;;;6303051;28;20227;-65
2022/04/07 12:53:05;;;;;;;2.20;1.63;;;23.90;32.90;;;;;;6304162;28;20706;-66
2022/04/07 12:56:19;;;;;;;1.70;1.60;;;24.00;32.70;;;;;;6321708;28;20226;-65
2022/04/07 12:59:22;;;;;;;3.70;1.80;;;23.80;32.70;;;;;;6342974;28;20222;-64
2022/04/07 13:02:43;;;;;;;3.13;1.93;;;24.10;32.70;;;;;;6354315;28;20306;-64
2022/04/07 13:05:46;;;;;;;1.83;1.43;;;24.00;32.40;;;;;;6354791;28;20272;-66
2022/04/07 13:08:50;;;;;;;1.77;1.67;;;23.90;32.10;;;;;;6354313;28;20315;-65
2022/04/07 13:11:53;;;;;;;2.20;2.00;;;23.80;32.50;;;;;;6355614;28;20221;-66
2022/04/07 13:15:01;;;;;;;1.80;1.57;;;23.60;32.30;;;;;;6355962;28;20288;-66
2022/04/07 13:18:07;;;;;;;2.23;1.80;;;23.10;33.60;;;;;;6354479;28;20202;-66
2022/04/07 13:21:10;;;;;;;2.63;2.30;;;23.10;33.90;;;;;;6339223;28;20215;-66
2022/04/07 13:24:13;;;;;;;2.80;2.60;;;23.10;33.90;;;;;;6308096;28;20227;-67
2022/04/07 13:27:16;;;;;;;2.57;2.20;;;22.90;34.00;;;;;;6309220;28;20242;-67
2022/04/07 13:30:20;;;;;;;2.40;2.20;;;22.90;34.20;;;;;;6341986;28;20226;-64
2022/04/07 13:33:24;;;;;;;2.93;2.43;;;22.50;34.50;;;;;;6354870;28;20233;-64
2022/04/07 13:36:29;;;;;;;3.53;2.93;;;22.50;34.40;;;;;;6353886;28;20564;-64
2022/04/07 13:39:32;;;;;;;2.43;2.23;;;22.70;34.70;;;;;;6355248;28;20687;-64
2022/04/07 13:42:36;;;;;;;3.10;2.90;;;22.60;34.50;;;;;;6354634;28;20229;-63
2022/04/07 13:45:39;;;;;;;3.37;3.07;;;22.60;34.60;;;;;;6353429;28;20233;-64
2022/04/07 13:48:44;;;;;;;3.73;3.20;;;22.50;34.70;;;;;;6353069;28;20238;-63
2022/04/07 13:51:47;;;;;;;3.20;2.60;;;22.50;35.30;;;;;;6352938;28;20229;-64
2022/04/07 13:54:56;;;;;;;3.90;3.50;;;22.50;35.50;;;;;;6353108;28;20310;-65
2022/04/07 13:57:59;;;;;;;4.10;3.80;;;22.20;35.10;;;;;;6352271;28;20234;-64
2022/04/07 14:01:02;;;;;;;4.13;3.73;;;22.10;36.00;;;;;;6350968;28;20230;-64
2022/04/07 14:04:07;;;;;;;4.00;3.70;;;21.90;37.00;;;;;;6352549;28;20579;-64
2022/04/07 14:07:10;;;;;;;3.73;3.43;;;22.00;37.10;;;;;;6365240;28;20241;-64
2022/04/07 14:10:14;;;;;;;5.40;3.63;;;22.00;37.20;;;;;;6362730;28;20228;-64
2022/04/07 14:13:20;;;;;;;4.13;3.77;;;21.90;37.30;;;;;;6356651;28;20240;-64
2022/04/07 14:16:24;;;;;;;3.83;3.53;;;21.70;37.60;;;;;;6352699;28;20313;-64
2022/04/07 14:19:28;;;;;;;3.60;3.30;;;21.70;37.90;;;;;;6353803;28;20576;-64
2022/04/07 14:22:34;;;;;;;3.60;3.30;;;21.90;37.80;;;;;;6337340;28;20230;-64
2022/04/07 14:25:37;;;;;;;5.07;3.30;;;21.80;37.30;;;;;;6325890;28;20238;-64
2022/04/07 14:28:40;;;;;;;7.40;3.43;;;21.80;37.90;;;;;;6330071;28;20222;-64
2022/04/07 14:31:43;;;;;;;3.50;3.20;;;21.70;37.20;;;;;;6350443;28;20213;-64
2022/04/07 14:34:49;;;;;;;4.20;3.80;;;21.30;37.40;;;;;;6351423;28;20688;-64
2022/04/07 14:37:52;;;;;;;3.70;3.40;;;21.30;37.80;;;;;;6351471;28;20234;-63
2022/04/07 14:40:55;;;;;;;3.90;3.50;;;21.10;38.00;;;;;;6351626;28;20232;-63
2022/04/07 14:43:58;;;;;;;4.63;3.77;;;20.90;38.40;;;;;;6335564;28;20244;-63
2022/04/07 14:47:03;;;;;;;5.40;4.23;;;20.90;38.90;;;;;;6341248;28;20222;-66
2022/04/07 14:50:09;;;;;;;3.70;3.40;;;20.80;38.70;;;;;;6349297;28;20240;-65
2022/04/07 14:53:12;;;;;;;3.53;2.93;;;20.70;38.70;;;;;;6348842;28;20234;-64
2022/04/07 14:56:15;;;;;;;3.80;3.13;;;20.60;38.80;;;;;;6348552;28;20359;-64
2022/04/07 14:59:18;;;;;;;4.33;3.00;;;20.60;38.50;;;;;;6348113;28;20218;-64
2022/04/07 15:02:21;;;;;;;4.80;3.37;;;20.50;38.70;;;;;;6348337;28;20323;-64
2022/04/07 15:05:26;;;;;;;4.20;3.00;;;20.50;38.80;;;;;;6350275;28;20229;-63
2022/04/07 15:08:29;;;;;;;2.80;2.40;;;20.50;38.70;;;;;;6334106;28;20230;-63
2022/04/07 15:11:32;;;;;;;3.00;2.73;;;20.50;38.60;;;;;;6333670;28;20219;-64
2022/04/07 15:14:39;;;;;;;3.70;2.30;;;20.50;38.80;;;;;;6341309;28;20240;-64
2022/04/07 15:17:42;;;;;;;3.40;3.10;;;20.60;37.90;;;;;;6348989;28;20226;-65
2022/04/07 15:20:47;;;;;;;2.60;2.40;;;20.60;37.50;;;;;;6349655;28;20241;-64
2022/04/07 15:23:50;;;;;;;3.10;2.90;;;20.60;37.60;;;;;;6330133;28;20682;-64
2022/04/07 15:26:53;;;;;;;3.63;3.43;;;20.60;37.70;;;;;;6324066;28;20227;-64
2022/04/07 15:29:56;;;;;;;4.07;3.77;;;20.60;37.70;;;;;;6324882;28;20250;-64
2022/04/07 15:33:00;;;;;;;2.90;2.70;;;20.40;37.70;;;;;;6325626;28;20223;-63
2022/04/07 15:36:06;;;;;;;3.50;2.60;;;20.20;38.30;;;;;;6324829;28;20242;-63
2022/04/07 15:39:09;;;;;;;2.37;2.17;;;20.20;38.00;;;;;;6325819;28;20203;-63
2022/04/07 15:42:12;;;;;;;3.03;2.50;;;20.30;37.60;;;;;;6324544;28;20226;-64
2022/04/07 15:45:15;;;;;;;3.10;2.67;;;20.20;37.60;;;;;;6323594;28;20650;-63
2022/04/07 15:48:18;;;;;;;2.47;2.27;;;20.30;38.00;;;;;;6324238;28;20230;-63
2022/04/07 15:51:23;;;;;;;3.00;2.70;;;20.40;38.30;;;;;;6321832;28;20226;-64
2022/04/07 15:54:27;;;;;;;3.20;2.13;;;20.40;38.50;;;;;;6322687;28;20234;-64
2022/04/07 15:57:32;;;;;;;3.93;2.47;;;20.40;38.50;;;;;;6323867;28;20254;-63
2022/04/07 16:00:35;;;;;;;2.70;2.50;;;20.40;39.00;;;;;;6325385;28;20231;-63